sensor_id;sensor_type;location;lat;lon;timestamp;temperature;humidity
17728;DHT22;8984;49.268;12.302;2022-12-10T00:02:08;4.00;99.90
17728;DHT22;8984;49.268;12.302;2022-12-10T00:04:36;4.00;99.90
17728;DHT22;8984;49.268;12.302;2022-12-10T00:07:03;4.10;99.90
17728;DHT22;8984;49.268;12.302;2022-12-10T00:09:29;4.10;99.90
17728;DHT22;8984;49.268;12.302;2022-12-10T00:11:56;4.20;99.90
17728;DHT22;8984;49.268;12.302;2022-12-10T00:14:23;4.10;99.90
17728;DHT22;8984;49.268;12.302;2022-12-10T00:16:50;4.10;99.90
17728;DHT22;8984;49.268;12.302;2022-12-10T00:19:16;4.00;99.90
17728;DHT22;8984;49.268;12.302;2022-12-10T00:21:45;4.20;99.90
17728;DHT22;8984;49.268;12.302;2022-12-10T00:24:11;4.10;99.90
17728;DHT22;8984;49.268;12.302;2022-12-10T00:26:39;4.30;99.90
17728;DHT22;8984;49.268;12.302;2022-12-10T00:29:07;4.40;99.90
17728;DHT22;8984;49.268;12.302;2022-12-10T00:31:36;4.20;99.90
17728;DHT22;8984;49.268;12.302;2022-12-10T00:34:05;4.30;99.90
17728;DHT22;8984;49.268;12.302;2022-12-10T00:36:33;4.30;99.90
17728;DHT22;8984;49.268;12.302;2022-12-10T00:39:03;4.30;99.90
17728;DHT22;8984;49.268;12.302;2022-12-10T00:41:30;4.40;99.90
17728;DHT22;8984;49.268;12.302;2022-12-10T00:43:57;4.30;99.90
17728;DHT22;8984;49.268;12.302;2022-12-10T00:46:26;4.30;99.90
17728;DHT22;8984;49.268;12.302;2022-12-10T00:48:53;4.30;99.90
17728;DHT22;8984;49.268;12.302;2022-12-10T00:51:21;4.30;99.90
17728;DHT22;8984;49.268;12.302;2022-12-10T00:53:50;4.40;99.90
17728;DHT22;8984;49.268;12.302;2022-12-10T00:56:20;4.30;99.90
17728;DHT22;8984;49.268;12.302;2022-12-10T00:58:48;4.30;99.90
17728;DHT22;8984;49.268;12.302;2022-12-10T01:01:18;4.30;99.90
17728;DHT22;8984;49.268;12.302;2022-12-10T01:03:45;4.40;99.90
17728;DHT22;8984;49.268;12.302;2022-12-10T01:06:15;4.40;99.90
17728;DHT22;8984;49.268;12.302;2022-12-10T01:08:43;4.60;99.90
17728;DHT22;8984;49.268;12.302;2022-12-10T01:11:12;4.40;99.90
17728;DHT22;8984;49.268;12.302;2022-12-10T01:13:41;4.40;99.90
17728;DHT22;8984;49.268;12.302;2022-12-10T01:16:11;4.40;99.90
17728;DHT22;8984;49.268;12.302;2022-12-10T01:18:38;4.60;99.90
17728;DHT22;8984;49.268;12.302;2022-12-10T01:21:07;4.40;99.90
17728;DHT22;8984;49.268;12.302;2022-12-10T01:23:35;4.50;99.90
17728;DHT22;8984;49.268;12.302;2022-12-10T01:26:04;4.30;99.90
17728;DHT22;8984;49.268;12.302;2022-12-10T01:28:32;4.30;99.90
17728;DHT22;8984;49.268;12.302;2022-12-10T01:31:03;4.30;99.90
17728;DHT22;8984;49.268;12.302;2022-12-10T01:33:30;4.20;99.90
17728;DHT22;8984;49.268;12.302;2022-12-10T01:36:02;4.10;99.90
17728;DHT22;8984;49.268;12.302;2022-12-10T01:38:29;4.10;99.90
17728;DHT22;8984;49.268;12.302;2022-12-10T01:40:56;4.10;99.90
17728;DHT22;8984;49.268;12.302;2022-12-10T01:43:23;4.00;99.90
17728;DHT22;8984;49.268;12.302;2022-12-10T01:45:50;4.00;99.90
17728;DHT22;8984;49.268;12.302;2022-12-10T01:48:18;3.90;99.90
17728;DHT22;8984;49.268;12.302;2022-12-10T01:50:45;3.90;99.90
17728;DHT22;8984;49.268;12.302;2022-12-10T01:53:12;3.80;99.90
17728;DHT22;8984;49.268;12.302;2022-12-10T01:55:46;3.80;99.90
17728;DHT22;8984;49.268;12.302;2022-12-10T01:58:16;3.90;99.90
17728;DHT22;8984;49.268;12.302;2022-12-10T02:00:52;3.80;99.90
17728;DHT22;8984;49.268;12.302;2022-12-10T02:03:28;3.80;99.90
17728;DHT22;8984;49.268;12.302;2022-12-10T02:06:03;3.80;99.90
17728;DHT22;8984;49.268;12.302;2022-12-10T02:08:37;4.00;99.90
17728;DHT22;8984;49.268;12.302;2022-12-10T02:11:13;3.90;99.90
17728;DHT22;8984;49.268;12.302;2022-12-10T02:13:46;4.00;99.90
17728;DHT22;8984;49.268;12.302;2022-12-10T02:16:21;4.00;99.90
17728;DHT22;8984;49.268;12.302;2022-12-10T02:18:56;3.90;99.90
17728;DHT22;8984;49.268;12.302;2022-12-10T02:21:28;4.00;99.90
17728;DHT22;8984;49.268;12.302;2022-12-10T02:23:59;4.00;99.90
17728;DHT22;8984;49.268;12.302;2022-12-10T02:26:32;4.20;99.90
17728;DHT22;8984;49.268;12.302;2022-12-10T02:29:12;4.10;99.90
17728;DHT22;8984;49.268;12.302;2022-12-10T02:31:42;4.00;99.90
17728;DHT22;8984;49.268;12.302;2022-12-10T02:34:11;4.20;99.90
17728;DHT22;8984;49.268;12.302;2022-12-10T02:36:42;4.10;99.90
17728;DHT22;8984;49.268;12.302;2022-12-10T02:39:12;4.10;99.90
17728;DHT22;8984;49.268;12.302;2022-12-10T02:41:42;4.20;99.90
17728;DHT22;8984;49.268;12.302;2022-12-10T02:44:13;4.20;99.90
17728;DHT22;8984;49.268;12.302;2022-12-10T02:46:43;4.20;99.90
17728;DHT22;8984;49.268;12.302;2022-12-10T02:49:12;4.20;99.90
17728;DHT22;8984;49.268;12.302;2022-12-10T02:51:40;4.20;99.90
17728;DHT22;8984;49.268;12.302;2022-12-10T02:54:35;4.30;99.90
17728;DHT22;8984;49.268;12.302;2022-12-10T02:57:12;4.30;99.90
17728;DHT22;8984;49.268;12.302;2022-12-10T03:00:00;4.30;99.90
17728;DHT22;8984;49.268;12.302;2022-12-10T03:02:34;4.30;99.90
17728;DHT22;8984;49.268;12.302;2022-12-10T03:05:10;4.30;99.90
17728;DHT22;8984;49.268;12.302;2022-12-10T03:07:41;4.40;99.90
17728;DHT22;8984;49.268;12.302;2022-12-10T03:10:13;4.30;99.90
17728;DHT22;8984;49.268;12.302;2022-12-10T03:12:45;4.30;99.90
17728;DHT22;8984;49.268;12.302;2022-12-10T03:15:16;4.30;99.90
17728;DHT22;8984;49.268;12.302;2022-12-10T03:17:45;4.30;99.90
17728;DHT22;8984;49.268;12.302;2022-12-10T03:20:14;4.20;99.90
17728;DHT22;8984;49.268;12.302;2022-12-10T03:22:44;4.20;99.90
17728;DHT22;8984;49.268;12.302;2022-12-10T03:25:15;4.20;99.90
17728;DHT22;8984;49.268;12.302;2022-12-10T03:27:45;4.20;99.90
17728;DHT22;8984;49.268;12.302;2022-12-10T03:30:12;4.20;99.90
17728;DHT22;8984;49.268;12.302;2022-12-10T03:32:40;4.20;99.90
17728;DHT22;8984;49.268;12.302;2022-12-10T03:35:09;4.20;99.90
17728;DHT22;8984;49.268;12.302;2022-12-10T03:37:37;4.20;99.90
17728;DHT22;8984;49.268;12.302;2022-12-10T03:40:05;4.10;99.90
17728;DHT22;8984;49.268;12.302;2022-12-10T03:42:35;4.00;99.90
17728;DHT22;8984;49.268;12.302;2022-12-10T03:45:02;4.10;99.90
17728;DHT22;8984;49.268;12.302;2022-12-10T03:47:29;4.10;99.90
17728;DHT22;8984;49.268;12.302;2022-12-10T03:49:57;4.00;99.90
17728;DHT22;8984;49.268;12.302;2022-12-10T03:52:24;3.90;99.90
17728;DHT22;8984;49.268;12.302;2022-12-10T03:54:51;3.70;99.90
17728;DHT22;8984;49.268;12.302;2022-12-10T03:57:18;3.70;99.90
17728;DHT22;8984;49.268;12.302;2022-12-10T03:59:45;4.00;99.90
17728;DHT22;8984;49.268;12.302;2022-12-10T04:02:11;3.80;99.90
17728;DHT22;8984;49.268;12.302;2022-12-10T04:04:38;3.80;99.90
17728;DHT22;8984;49.268;12.302;2022-12-10T04:07:07;3.80;99.90
17728;DHT22;8984;49.268;12.302;2022-12-10T04:09:34;3.80;99.90
17728;DHT22;8984;49.268;12.302;2022-12-10T04:12:01;3.80;99.90
17728;DHT22;8984;49.268;12.302;2022-12-10T04:14:28;3.80;99.90
17728;DHT22;8984;49.268;12.302;2022-12-10T04:17:13;3.90;99.90
17728;DHT22;8984;49.268;12.302;2022-12-10T04:19:40;3.90;99.90
17728;DHT22;8984;49.268;12.302;2022-12-10T04:22:09;3.90;99.90
17728;DHT22;8984;49.268;12.302;2022-12-10T04:24:54;3.90;99.90
17728;DHT22;8984;49.268;12.302;2022-12-10T04:27:46;3.80;99.90
17728;DHT22;8984;49.268;12.302;2022-12-10T04:30:13;3.80;99.90
17728;DHT22;8984;49.268;12.302;2022-12-10T04:32:40;3.90;99.90
17728;DHT22;8984;49.268;12.302;2022-12-10T04:35:08;3.80;99.90
17728;DHT22;8984;49.268;12.302;2022-12-10T04:37:36;3.80;99.90
17728;DHT22;8984;49.268;12.302;2022-12-10T04:40:04;3.80;99.90
17728;DHT22;8984;49.268;12.302;2022-12-10T04:42:31;3.70;99.90
17728;DHT22;8984;49.268;12.302;2022-12-10T04:44:58;3.70;99.90
17728;DHT22;8984;49.268;12.302;2022-12-10T04:47:24;3.80;99.90
17728;DHT22;8984;49.268;12.302;2022-12-10T04:49:51;4.00;99.90
17728;DHT22;8984;49.268;12.302;2022-12-10T04:52:18;3.80;99.90
17728;DHT22;8984;49.268;12.302;2022-12-10T04:54:46;3.90;99.90
17728;DHT22;8984;49.268;12.302;2022-12-10T04:57:13;4.00;99.90
17728;DHT22;8984;49.268;12.302;2022-12-10T04:59:40;3.90;99.90
17728;DHT22;8984;49.268;12.302;2022-12-10T05:02:07;4.00;99.90
17728;DHT22;8984;49.268;12.302;2022-12-10T05:04:34;3.80;99.90
17728;DHT22;8984;49.268;12.302;2022-12-10T05:07:01;4.00;99.90
17728;DHT22;8984;49.268;12.302;2022-12-10T05:09:28;3.90;99.90
17728;DHT22;8984;49.268;12.302;2022-12-10T05:11:56;4.00;99.90
17728;DHT22;8984;49.268;12.302;2022-12-10T05:14:24;3.90;99.90
17728;DHT22;8984;49.268;12.302;2022-12-10T05:16:51;3.90;99.90
17728;DHT22;8984;49.268;12.302;2022-12-10T05:19:18;3.90;99.90
17728;DHT22;8984;49.268;12.302;2022-12-10T05:21:47;3.90;99.90
17728;DHT22;8984;49.268;12.302;2022-12-10T05:24:31;3.90;99.90
17728;DHT22;8984;49.268;12.302;2022-12-10T05:27:00;3.90;99.90
17728;DHT22;8984;49.268;12.302;2022-12-10T05:29:27;3.90;99.90
17728;DHT22;8984;49.268;12.302;2022-12-10T05:31:53;4.00;99.90
17728;DHT22;8984;49.268;12.302;2022-12-10T05:34:20;4.00;99.90
17728;DHT22;8984;49.268;12.302;2022-12-10T05:36:47;4.00;99.90
17728;DHT22;8984;49.268;12.302;2022-12-10T05:39:14;4.00;99.90
17728;DHT22;8984;49.268;12.302;2022-12-10T05:41:41;4.00;99.90
17728;DHT22;8984;49.268;12.302;2022-12-10T05:44:10;4.00;99.90
17728;DHT22;8984;49.268;12.302;2022-12-10T05:46:37;4.00;99.90
17728;DHT22;8984;49.268;12.302;2022-12-10T05:49:05;4.00;99.90
17728;DHT22;8984;49.268;12.302;2022-12-10T05:51:35;4.00;99.90
17728;DHT22;8984;49.268;12.302;2022-12-10T05:54:02;3.90;99.90
17728;DHT22;8984;49.268;12.302;2022-12-10T05:56:30;3.90;99.90
17728;DHT22;8984;49.268;12.302;2022-12-10T05:58:59;3.90;99.90
17728;DHT22;8984;49.268;12.302;2022-12-10T06:01:29;3.90;99.90
17728;DHT22;8984;49.268;12.302;2022-12-10T06:03:57;3.90;99.90
17728;DHT22;8984;49.268;12.302;2022-12-10T06:06:27;3.90;99.90
17728;DHT22;8984;49.268;12.302;2022-12-10T06:08:54;3.90;99.90
17728;DHT22;8984;49.268;12.302;2022-12-10T06:11:22;3.80;99.90
17728;DHT22;8984;49.268;12.302;2022-12-10T06:13:49;3.80;99.90
17728;DHT22;8984;49.268;12.302;2022-12-10T06:16:16;3.80;99.90
17728;DHT22;8984;49.268;12.302;2022-12-10T06:18:44;3.80;99.90
17728;DHT22;8984;49.268;12.302;2022-12-10T06:21:13;3.80;99.90
17728;DHT22;8984;49.268;12.302;2022-12-10T06:23:41;3.80;99.90
17728;DHT22;8984;49.268;12.302;2022-12-10T06:26:10;3.80;99.90
17728;DHT22;8984;49.268;12.302;2022-12-10T06:28:37;3.80;99.90
17728;DHT22;8984;49.268;12.302;2022-12-10T06:31:05;3.90;99.90
17728;DHT22;8984;49.268;12.302;2022-12-10T06:33:32;3.90;99.90
17728;DHT22;8984;49.268;12.302;2022-12-10T06:36:03;3.90;99.90
17728;DHT22;8984;49.268;12.302;2022-12-10T06:38:30;3.90;99.90
17728;DHT22;8984;49.268;12.302;2022-12-10T06:40:57;3.80;99.90
17728;DHT22;8984;49.268;12.302;2022-12-10T06:43:24;3.80;99.90
17728;DHT22;8984;49.268;12.302;2022-12-10T06:45:52;3.80;99.90
17728;DHT22;8984;49.268;12.302;2022-12-10T06:48:19;3.80;99.90
17728;DHT22;8984;49.268;12.302;2022-12-10T06:50:45;3.90;99.90
17728;DHT22;8984;49.268;12.302;2022-12-10T06:53:13;4.00;99.90
17728;DHT22;8984;49.268;12.302;2022-12-10T06:55:40;3.90;99.90
17728;DHT22;8984;49.268;12.302;2022-12-10T06:58:07;3.90;99.90
17728;DHT22;8984;49.268;12.302;2022-12-10T07:00:34;4.00;99.90
17728;DHT22;8984;49.268;12.302;2022-12-10T07:03:01;4.00;99.90
17728;DHT22;8984;49.268;12.302;2022-12-10T07:05:27;4.00;99.90
17728;DHT22;8984;49.268;12.302;2022-12-10T07:07:54;3.90;99.90
17728;DHT22;8984;49.268;12.302;2022-12-10T07:10:24;3.90;99.90
17728;DHT22;8984;49.268;12.302;2022-12-10T07:12:51;3.90;99.90
17728;DHT22;8984;49.268;12.302;2022-12-10T07:15:18;3.90;99.90
17728;DHT22;8984;49.268;12.302;2022-12-10T07:17:44;3.70;99.90
17728;DHT22;8984;49.268;12.302;2022-12-10T07:20:11;3.60;99.90
17728;DHT22;8984;49.268;12.302;2022-12-10T07:22:38;3.70;99.90
17728;DHT22;8984;49.268;12.302;2022-12-10T07:25:05;3.80;99.90
17728;DHT22;8984;49.268;12.302;2022-12-10T07:27:34;3.80;99.90
17728;DHT22;8984;49.268;12.302;2022-12-10T07:30:00;3.80;99.90
17728;DHT22;8984;49.268;12.302;2022-12-10T07:32:28;3.70;99.90
17728;DHT22;8984;49.268;12.302;2022-12-10T07:34:55;3.70;99.90
17728;DHT22;8984;49.268;12.302;2022-12-10T07:37:22;3.70;99.90
17728;DHT22;8984;49.268;12.302;2022-12-10T07:39:48;3.80;99.90
17728;DHT22;8984;49.268;12.302;2022-12-10T07:42:15;3.80;99.90
17728;DHT22;8984;49.268;12.302;2022-12-10T07:44:43;3.80;99.90
17728;DHT22;8984;49.268;12.302;2022-12-10T07:47:10;3.80;99.90
17728;DHT22;8984;49.268;12.302;2022-12-10T07:49:37;3.90;99.90
17728;DHT22;8984;49.268;12.302;2022-12-10T07:52:04;3.90;99.90
17728;DHT22;8984;49.268;12.302;2022-12-10T07:54:31;3.90;99.90
17728;DHT22;8984;49.268;12.302;2022-12-10T07:56:58;3.90;99.90
17728;DHT22;8984;49.268;12.302;2022-12-10T07:59:24;3.90;99.90
17728;DHT22;8984;49.268;12.302;2022-12-10T08:01:53;3.90;99.90
17728;DHT22;8984;49.268;12.302;2022-12-10T08:04:19;4.00;99.90
17728;DHT22;8984;49.268;12.302;2022-12-10T08:06:46;3.90;99.90
17728;DHT22;8984;49.268;12.302;2022-12-10T08:09:13;4.00;99.90
17728;DHT22;8984;49.268;12.302;2022-12-10T08:11:40;4.00;99.90
17728;DHT22;8984;49.268;12.302;2022-12-10T08:14:07;4.10;99.90
17728;DHT22;8984;49.268;12.302;2022-12-10T08:16:33;4.10;99.90
17728;DHT22;8984;49.268;12.302;2022-12-10T08:19:02;4.20;99.90
17728;DHT22;8984;49.268;12.302;2022-12-10T08:21:31;4.20;99.90
17728;DHT22;8984;49.268;12.302;2022-12-10T08:23:58;4.20;99.90
17728;DHT22;8984;49.268;12.302;2022-12-10T08:26:29;4.30;99.90
17728;DHT22;8984;49.268;12.302;2022-12-10T08:28:56;4.30;99.90
17728;DHT22;8984;49.268;12.302;2022-12-10T08:31:25;4.30;99.90
17728;DHT22;8984;49.268;12.302;2022-12-10T08:33:53;4.30;99.90
17728;DHT22;8984;49.268;12.302;2022-12-10T08:36:21;4.20;99.90
17728;DHT22;8984;49.268;12.302;2022-12-10T08:38:48;4.30;99.90
17728;DHT22;8984;49.268;12.302;2022-12-10T08:41:18;4.30;99.90
17728;DHT22;8984;49.268;12.302;2022-12-10T08:43:45;4.30;99.90
17728;DHT22;8984;49.268;12.302;2022-12-10T08:46:13;4.30;99.90
17728;DHT22;8984;49.268;12.302;2022-12-10T08:48:41;4.30;99.90
17728;DHT22;8984;49.268;12.302;2022-12-10T08:51:10;4.40;99.90
17728;DHT22;8984;49.268;12.302;2022-12-10T08:53:38;4.50;99.90
17728;DHT22;8984;49.268;12.302;2022-12-10T08:56:06;4.50;99.90
17728;DHT22;8984;49.268;12.302;2022-12-10T08:58:32;4.40;99.90
17728;DHT22;8984;49.268;12.302;2022-12-10T09:01:05;4.40;99.90
17728;DHT22;8984;49.268;12.302;2022-12-10T09:03:32;4.50;99.90
17728;DHT22;8984;49.268;12.302;2022-12-10T09:06:02;4.50;99.90
17728;DHT22;8984;49.268;12.302;2022-12-10T09:08:29;4.50;99.90
17728;DHT22;8984;49.268;12.302;2022-12-10T09:10:58;4.50;99.90
17728;DHT22;8984;49.268;12.302;2022-12-10T09:13:24;4.40;99.90
17728;DHT22;8984;49.268;12.302;2022-12-10T09:15:52;4.40;99.90
17728;DHT22;8984;49.268;12.302;2022-12-10T09:18:19;4.40;99.90
17728;DHT22;8984;49.268;12.302;2022-12-10T09:20:46;4.40;99.90
17728;DHT22;8984;49.268;12.302;2022-12-10T09:23:13;4.50;99.90
17728;DHT22;8984;49.268;12.302;2022-12-10T09:25:39;4.50;99.90
17728;DHT22;8984;49.268;12.302;2022-12-10T09:28:08;4.50;99.90
17728;DHT22;8984;49.268;12.302;2022-12-10T09:30:35;4.50;99.90
17728;DHT22;8984;49.268;12.302;2022-12-10T09:33:01;4.40;99.90
17728;DHT22;8984;49.268;12.302;2022-12-10T09:35:28;4.40;99.90
17728;DHT22;8984;49.268;12.302;2022-12-10T09:37:55;4.40;99.90
17728;DHT22;8984;49.268;12.302;2022-12-10T09:40:27;4.10;99.90
17728;DHT22;8984;49.268;12.302;2022-12-10T09:42:59;4.20;99.90
17728;DHT22;8984;49.268;12.302;2022-12-10T09:45:34;4.30;99.90
17728;DHT22;8984;49.268;12.302;2022-12-10T09:48:14;4.20;99.90
17728;DHT22;8984;49.268;12.302;2022-12-10T09:50:49;4.30;99.90
17728;DHT22;8984;49.268;12.302;2022-12-10T09:53:21;4.30;99.90
17728;DHT22;8984;49.268;12.302;2022-12-10T09:55:48;4.40;99.90
17728;DHT22;8984;49.268;12.302;2022-12-10T09:58:18;4.30;99.90
17728;DHT22;8984;49.268;12.302;2022-12-10T10:00:49;4.30;99.90
17728;DHT22;8984;49.268;12.302;2022-12-10T10:03:18;4.30;99.90
17728;DHT22;8984;49.268;12.302;2022-12-10T10:05:48;4.20;99.90
17728;DHT22;8984;49.268;12.302;2022-12-10T10:08:23;4.40;99.90
17728;DHT22;8984;49.268;12.302;2022-12-10T10:10:51;4.20;99.90
17728;DHT22;8984;49.268;12.302;2022-12-10T10:13:27;4.30;99.90
17728;DHT22;8984;49.268;12.302;2022-12-10T10:15:58;4.50;99.90
17728;DHT22;8984;49.268;12.302;2022-12-10T10:18:32;4.40;99.90
17728;DHT22;8984;49.268;12.302;2022-12-10T10:21:00;4.30;99.90
17728;DHT22;8984;49.268;12.302;2022-12-10T10:23:28;4.30;99.90
17728;DHT22;8984;49.268;12.302;2022-12-10T10:25:54;4.10;99.90
17728;DHT22;8984;49.268;12.302;2022-12-10T10:28:22;4.30;99.90
17728;DHT22;8984;49.268;12.302;2022-12-10T10:30:51;4.50;99.90
17728;DHT22;8984;49.268;12.302;2022-12-10T10:33:20;4.70;99.90
17728;DHT22;8984;49.268;12.302;2022-12-10T10:35:49;4.60;99.90
17728;DHT22;8984;49.268;12.302;2022-12-10T10:38:21;4.70;99.90
17728;DHT22;8984;49.268;12.302;2022-12-10T10:40:50;4.50;99.90
17728;DHT22;8984;49.268;12.302;2022-12-10T10:43:20;4.50;99.90
17728;DHT22;8984;49.268;12.302;2022-12-10T10:45:52;4.70;99.90
17728;DHT22;8984;49.268;12.302;2022-12-10T10:48:23;4.70;99.90
17728;DHT22;8984;49.268;12.302;2022-12-10T10:50:52;4.80;99.90
17728;DHT22;8984;49.268;12.302;2022-12-10T10:53:31;5.00;99.90
17728;DHT22;8984;49.268;12.302;2022-12-10T10:56:04;5.00;99.90
17728;DHT22;8984;49.268;12.302;2022-12-10T10:58:32;5.00;99.90
17728;DHT22;8984;49.268;12.302;2022-12-10T11:01:01;5.10;99.90
17728;DHT22;8984;49.268;12.302;2022-12-10T11:03:32;5.20;99.90
17728;DHT22;8984;49.268;12.302;2022-12-10T11:05:59;5.30;99.90
17728;DHT22;8984;49.268;12.302;2022-12-10T11:08:30;5.40;99.90
17728;DHT22;8984;49.268;12.302;2022-12-10T11:11:02;5.40;99.90
17728;DHT22;8984;49.268;12.302;2022-12-10T11:13:31;5.60;99.90
17728;DHT22;8984;49.268;12.302;2022-12-10T11:16:01;5.50;99.90
17728;DHT22;8984;49.268;12.302;2022-12-10T11:18:35;5.40;99.90
17728;DHT22;8984;49.268;12.302;2022-12-10T11:21:06;5.50;99.90
17728;DHT22;8984;49.268;12.302;2022-12-10T11:23:38;5.50;99.90
17728;DHT22;8984;49.268;12.302;2022-12-10T11:26:16;5.50;99.90
17728;DHT22;8984;49.268;12.302;2022-12-10T11:28:55;5.50;99.90
17728;DHT22;8984;49.268;12.302;2022-12-10T11:31:32;5.40;99.90
17728;DHT22;8984;49.268;12.302;2022-12-10T11:34:11;5.50;99.90
17728;DHT22;8984;49.268;12.302;2022-12-10T11:36:46;5.60;99.90
17728;DHT22;8984;49.268;12.302;2022-12-10T11:39:29;5.70;99.90
17728;DHT22;8984;49.268;12.302;2022-12-10T11:42:04;5.50;99.90
17728;DHT22;8984;49.268;12.302;2022-12-10T11:44:41;5.60;99.90
17728;DHT22;8984;49.268;12.302;2022-12-10T11:47:29;5.60;99.90
17728;DHT22;8984;49.268;12.302;2022-12-10T11:50:14;5.50;99.90
17728;DHT22;8984;49.268;12.302;2022-12-10T11:53:03;5.50;99.90
17728;DHT22;8984;49.268;12.302;2022-12-10T11:55:42;5.60;99.90
17728;DHT22;8984;49.268;12.302;2022-12-10T11:58:32;5.60;99.90
17728;DHT22;8984;49.268;12.302;2022-12-10T12:01:09;5.70;99.90
17728;DHT22;8984;49.268;12.302;2022-12-10T12:06:42;5.70;99.90
17728;DHT22;8984;49.268;12.302;2022-12-10T12:09:21;5.60;99.90
17728;DHT22;8984;49.268;12.302;2022-12-10T12:11:59;5.40;99.90
17728;DHT22;8984;49.268;12.302;2022-12-10T12:14:31;5.60;99.90
17728;DHT22;8984;49.268;12.302;2022-12-10T12:17:03;5.70;99.90
17728;DHT22;8984;49.268;12.302;2022-12-10T12:19:35;5.70;99.90
17728;DHT22;8984;49.268;12.302;2022-12-10T12:22:10;5.50;99.90
17728;DHT22;8984;49.268;12.302;2022-12-10T12:24:41;5.60;99.90
17728;DHT22;8984;49.268;12.302;2022-12-10T12:27:16;5.50;99.90
17728;DHT22;8984;49.268;12.302;2022-12-10T12:29:54;5.50;99.90
17728;DHT22;8984;49.268;12.302;2022-12-10T12:32:27;5.50;99.90
17728;DHT22;8984;49.268;12.302;2022-12-10T12:34:59;5.30;99.90
17728;DHT22;8984;49.268;12.302;2022-12-10T12:37:36;5.00;99.90
17728;DHT22;8984;49.268;12.302;2022-12-10T12:40:11;5.20;99.90
17728;DHT22;8984;49.268;12.302;2022-12-10T12:42:45;5.20;99.90
17728;DHT22;8984;49.268;12.302;2022-12-10T12:45:14;5.10;99.90
17728;DHT22;8984;49.268;12.302;2022-12-10T12:47:47;5.30;99.90
17728;DHT22;8984;49.268;12.302;2022-12-10T12:50:25;5.20;99.90
17728;DHT22;8984;49.268;12.302;2022-12-10T12:52:57;5.30;99.90
17728;DHT22;8984;49.268;12.302;2022-12-10T12:55:31;5.10;99.90
17728;DHT22;8984;49.268;12.302;2022-12-10T12:58:15;5.20;99.90
17728;DHT22;8984;49.268;12.302;2022-12-10T13:00:46;5.40;99.90
17728;DHT22;8984;49.268;12.302;2022-12-10T13:03:33;5.40;99.90
17728;DHT22;8984;49.268;12.302;2022-12-10T13:06:17;5.40;99.90
17728;DHT22;8984;49.268;12.302;2022-12-10T13:08:46;5.40;99.90
17728;DHT22;8984;49.268;12.302;2022-12-10T13:11:29;5.30;99.90
17728;DHT22;8984;49.268;12.302;2022-12-10T13:14:30;5.40;99.90
17728;DHT22;8984;49.268;12.302;2022-12-10T13:17:24;5.20;99.90
17728;DHT22;8984;49.268;12.302;2022-12-10T13:19:53;5.30;99.90
17728;DHT22;8984;49.268;12.302;2022-12-10T13:22:43;5.30;99.90
17728;DHT22;8984;49.268;12.302;2022-12-10T13:25:38;5.20;99.90
17728;DHT22;8984;49.268;12.302;2022-12-10T13:28:20;5.10;99.90
17728;DHT22;8984;49.268;12.302;2022-12-10T13:31:06;5.10;99.90
17728;DHT22;8984;49.268;12.302;2022-12-10T13:33:46;5.20;99.90
17728;DHT22;8984;49.268;12.302;2022-12-10T13:36:20;5.20;99.90
17728;DHT22;8984;49.268;12.302;2022-12-10T13:38:57;5.20;99.90
17728;DHT22;8984;49.268;12.302;2022-12-10T13:41:25;5.30;99.90
17728;DHT22;8984;49.268;12.302;2022-12-10T13:44:31;5.20;99.90
17728;DHT22;8984;49.268;12.302;2022-12-10T13:47:03;5.30;99.90
17728;DHT22;8984;49.268;12.302;2022-12-10T13:49:35;5.30;99.90
17728;DHT22;8984;49.268;12.302;2022-12-10T13:52:15;5.30;99.90
17728;DHT22;8984;49.268;12.302;2022-12-10T13:55:17;5.30;99.90
17728;DHT22;8984;49.268;12.302;2022-12-10T13:57:56;5.30;99.90
17728;DHT22;8984;49.268;12.302;2022-12-10T14:00:33;5.30;99.90
17728;DHT22;8984;49.268;12.302;2022-12-10T14:03:16;5.20;99.90
17728;DHT22;8984;49.268;12.302;2022-12-10T14:06:00;5.30;99.90
17728;DHT22;8984;49.268;12.302;2022-12-10T14:08:34;5.20;99.90
17728;DHT22;8984;49.268;12.302;2022-12-10T14:11:05;5.10;99.90
17728;DHT22;8984;49.268;12.302;2022-12-10T14:13:37;4.90;99.90
17728;DHT22;8984;49.268;12.302;2022-12-10T14:16:10;4.90;99.90
17728;DHT22;8984;49.268;12.302;2022-12-10T14:18:38;4.80;99.90
17728;DHT22;8984;49.268;12.302;2022-12-10T14:21:07;4.70;99.90
17728;DHT22;8984;49.268;12.302;2022-12-10T14:23:44;4.60;99.90
17728;DHT22;8984;49.268;12.302;2022-12-10T14:26:13;4.50;99.90
17728;DHT22;8984;49.268;12.302;2022-12-10T14:28:43;4.60;99.90
17728;DHT22;8984;49.268;12.302;2022-12-10T14:31:16;4.70;99.90
17728;DHT22;8984;49.268;12.302;2022-12-10T14:33:45;4.70;99.90
17728;DHT22;8984;49.268;12.302;2022-12-10T14:36:16;4.70;99.90
17728;DHT22;8984;49.268;12.302;2022-12-10T14:38:45;4.70;99.90
17728;DHT22;8984;49.268;12.302;2022-12-10T14:41:17;4.80;99.90
17728;DHT22;8984;49.268;12.302;2022-12-10T14:43:46;4.80;99.90
17728;DHT22;8984;49.268;12.302;2022-12-10T14:46:16;4.80;99.90
17728;DHT22;8984;49.268;12.302;2022-12-10T14:48:48;4.70;99.90
17728;DHT22;8984;49.268;12.302;2022-12-10T14:51:17;4.70;99.90
17728;DHT22;8984;49.268;12.302;2022-12-10T14:53:44;4.50;99.90
17728;DHT22;8984;49.268;12.302;2022-12-10T14:56:18;4.70;99.90
17728;DHT22;8984;49.268;12.302;2022-12-10T14:58:52;4.70;99.90
17728;DHT22;8984;49.268;12.302;2022-12-10T15:01:27;4.70;99.90
17728;DHT22;8984;49.268;12.302;2022-12-10T15:03:55;4.70;99.90
17728;DHT22;8984;49.268;12.302;2022-12-10T15:06:22;4.70;99.90
17728;DHT22;8984;49.268;12.302;2022-12-10T15:08:50;4.80;99.90
17728;DHT22;8984;49.268;12.302;2022-12-10T15:11:20;4.70;99.90
17728;DHT22;8984;49.268;12.302;2022-12-10T15:13:51;4.70;99.90
17728;DHT22;8984;49.268;12.302;2022-12-10T15:16:21;4.60;99.90
17728;DHT22;8984;49.268;12.302;2022-12-10T15:18:53;4.70;99.90
17728;DHT22;8984;49.268;12.302;2022-12-10T15:21:23;4.70;99.90
17728;DHT22;8984;49.268;12.302;2022-12-10T15:23:59;4.80;99.90
17728;DHT22;8984;49.268;12.302;2022-12-10T15:26:33;4.70;99.90
17728;DHT22;8984;49.268;12.302;2022-12-10T15:29:44;4.70;99.90
17728;DHT22;8984;49.268;12.302;2022-12-10T15:32:12;4.80;99.90
17728;DHT22;8984;49.268;12.302;2022-12-10T15:34:44;4.70;99.90
17728;DHT22;8984;49.268;12.302;2022-12-10T15:37:20;4.80;99.90
17728;DHT22;8984;49.268;12.302;2022-12-10T15:39:51;4.70;99.90
17728;DHT22;8984;49.268;12.302;2022-12-10T15:42:43;4.70;99.90
17728;DHT22;8984;49.268;12.302;2022-12-10T15:45:36;4.70;99.90
17728;DHT22;8984;49.268;12.302;2022-12-10T15:48:07;4.70;99.90
17728;DHT22;8984;49.268;12.302;2022-12-10T15:50:34;4.70;99.90
17728;DHT22;8984;49.268;12.302;2022-12-10T15:53:01;4.60;99.90
17728;DHT22;8984;49.268;12.302;2022-12-10T15:55:28;4.50;99.90
17728;DHT22;8984;49.268;12.302;2022-12-10T15:57:55;4.50;99.90
17728;DHT22;8984;49.268;12.302;2022-12-10T16:00:24;4.50;99.90
17728;DHT22;8984;49.268;12.302;2022-12-10T16:02:54;4.40;99.90
17728;DHT22;8984;49.268;12.302;2022-12-10T16:05:23;4.50;99.90
17728;DHT22;8984;49.268;12.302;2022-12-10T16:07:52;4.50;99.90
17728;DHT22;8984;49.268;12.302;2022-12-10T16:10:20;4.50;99.90
17728;DHT22;8984;49.268;12.302;2022-12-10T16:12:49;4.50;99.90